HETCH HETCHY (HTH)

Elevation: 3870' · TUOLUMNE R basin · Operator: Hetch Hetchy Water and Power

Provisional data, subject to change.
Query executed Monday at 16:13:29   clock

Select a sensor type for a plot of data.
Note: Reservoir Flows are daily averages.

Earlier

Date RES ELE    STORAGE    RES CHG    OUTFLOW    INFLOW    PPT INC    RAIN    PPTINC4   
 FEET   AF   AF   CFS   CFS   INCHES   INCHES   INCHES  
07/04/2015 -- 338128 -- 412 -- 0.00 20.52 0.00
07/05/2015 -- 337742 -- 376 -- 0.00 20.52 0.00
07/06/2015 -- 337163 -- 391 -- 0.00 20.52 0.00
07/07/2015 -- 336778 -- 355 -- 0.00 20.52 0.00
07/08/2015 -- 336394 -- 349 -- 0.00 20.52 0.00
07/09/2015 -- 335818 -- 382 -- 0.50 21.02 0.00
07/10/2015 -- 335626 -- 382 -- 0.11 21.13 0.53
07/11/2015 -- 335434 -- 382 -- 0.00 21.13 --
07/12/2015 -- 335050 -- 395 -- 0.00 21.13 0.00
07/13/2015 -- 334666 -- 383 -- 0.00 21.13 --
07/14/2015 -- 334282 -- 420 -- 0.00 21.13 0.00
07/15/2015 -- 333706 -- 401 -- 0.00 21.13 0.00
07/16/2015 -- 333130 -- 75 -- 0.00 21.13 0.00
07/17/2015 -- 332554 -- 398 -- 0.00 21.13 0.00
07/18/2015 -- 331978 -- 396 -- 0.00 21.13 0.00
07/19/2015 -- 331402 -- 404 -- 0.00 21.13 0.00
07/20/2015 -- 330828 -- 398 -- 0.00 21.13 0.01
07/21/2015 -- 330446 -- 370 -- 0.46 21.59 0.45
07/22/2015 -- 329873 -- 406 -- 0.56 22.15 0.48
07/23/2015 -- 329491 -- 376 -- 0.01 22.16 0.00
07/24/2015 -- 328918 -- 390 -- 0.00 22.16 0.00
07/25/2015 -- 328345 -- 295 -- 0.00 22.16 0.00
07/26/2015 -- 327772 -- 290 -- 0.00 22.16 0.00
07/27/2015 -- 327199 -- 388 -- 0.00 22.16 0.00
07/28/2015 -- 326435 -- 400 -- 0.00 22.16 0.00
07/29/2015 -- 325862 -- 414 -- 0.00 22.16 0.00
07/30/2015 -- 325100 -- 408 -- 0.00 22.16 0.00
07/31/2015 -- 324340 -- 455 -- 0.00 22.16 0.00
08/01/2015 -- 323580 -- 439 -- 0.00 22.16 0.00
08/02/2015 -- 322820 -- 384 -- 0.00 22.16 0.00
08/03/2015 -- -- -- -- -- 0.00 -- 0.00

Later | Latest

Warning! This data is preliminary and subject to revision.

Show HTH Map | Plot HTH Data | 1 Month HTH Data | Real-Time HTH Data | HTH Info